sensor_id;sensor_type;location;lat;lon;timestamp;temperature;humidity
70726;DHT22;58304;53.104;6.022;2023-03-14T00:00:21;9.40;99.90
70726;DHT22;58304;53.104;6.022;2023-03-14T00:02:51;9.50;99.90
70726;DHT22;58304;53.104;6.022;2023-03-14T00:05:16;9.50;99.90
70726;DHT22;58304;53.104;6.022;2023-03-14T00:07:42;9.50;99.90
70726;DHT22;58304;53.104;6.022;2023-03-14T00:10:09;9.60;99.90
70726;DHT22;58304;53.104;6.022;2023-03-14T00:12:35;9.60;99.90
70726;DHT22;58304;53.104;6.022;2023-03-14T00:15:00;9.60;99.90
70726;DHT22;58304;53.104;6.022;2023-03-14T00:17:28;9.60;99.90
70726;DHT22;58304;53.104;6.022;2023-03-14T00:19:54;9.60;99.90
70726;DHT22;58304;53.104;6.022;2023-03-14T00:22:20;9.60;99.90
70726;DHT22;58304;53.104;6.022;2023-03-14T00:24:45;9.50;99.90
70726;DHT22;58304;53.104;6.022;2023-03-14T00:27:11;9.50;99.90
70726;DHT22;58304;53.104;6.022;2023-03-14T00:29:36;9.40;99.90
70726;DHT22;58304;53.104;6.022;2023-03-14T00:32:02;9.60;99.90
70726;DHT22;58304;53.104;6.022;2023-03-14T00:34:28;9.40;99.90
70726;DHT22;58304;53.104;6.022;2023-03-14T00:36:54;9.40;99.90
70726;DHT22;58304;53.104;6.022;2023-03-14T00:39:21;9.40;99.90
70726;DHT22;58304;53.104;6.022;2023-03-14T00:41:46;9.40;99.90
70726;DHT22;58304;53.104;6.022;2023-03-14T00:44:12;9.40;99.90
70726;DHT22;58304;53.104;6.022;2023-03-14T00:46:38;9.30;99.90
70726;DHT22;58304;53.104;6.022;2023-03-14T00:49:05;9.30;99.90
70726;DHT22;58304;53.104;6.022;2023-03-14T00:51:30;9.30;99.90
70726;DHT22;58304;53.104;6.022;2023-03-14T00:53:56;9.30;99.90
70726;DHT22;58304;53.104;6.022;2023-03-14T00:56:21;9.30;99.90
70726;DHT22;58304;53.104;6.022;2023-03-14T00:58:47;9.40;99.90
70726;DHT22;58304;53.104;6.022;2023-03-14T01:01:14;9.50;99.90
70726;DHT22;58304;53.104;6.022;2023-03-14T01:03:39;9.50;99.90
70726;DHT22;58304;53.104;6.022;2023-03-14T01:06:09;9.70;99.90
70726;DHT22;58304;53.104;6.022;2023-03-14T01:08:34;9.60;99.90
70726;DHT22;58304;53.104;6.022;2023-03-14T01:11:04;9.70;99.90
70726;DHT22;58304;53.104;6.022;2023-03-14T01:13:29;9.70;99.90
70726;DHT22;58304;53.104;6.022;2023-03-14T01:15:55;9.70;99.90
70726;DHT22;58304;53.104;6.022;2023-03-14T01:18:20;9.80;99.90
70726;DHT22;58304;53.104;6.022;2023-03-14T01:20:46;9.80;99.90
70726;DHT22;58304;53.104;6.022;2023-03-14T01:23:11;9.80;99.90
70726;DHT22;58304;53.104;6.022;2023-03-14T01:25:40;9.80;99.90
70726;DHT22;58304;53.104;6.022;2023-03-14T01:28:06;9.80;99.90
70726;DHT22;58304;53.104;6.022;2023-03-14T01:30:31;9.70;99.90
70726;DHT22;58304;53.104;6.022;2023-03-14T01:32:57;9.80;99.90
70726;DHT22;58304;53.104;6.022;2023-03-14T01:35:22;9.80;99.90
70726;DHT22;58304;53.104;6.022;2023-03-14T01:37:48;9.80;99.90
70726;DHT22;58304;53.104;6.022;2023-03-14T01:40:13;9.80;99.90
70726;DHT22;58304;53.104;6.022;2023-03-14T01:42:45;9.90;99.90
70726;DHT22;58304;53.104;6.022;2023-03-14T01:45:52;9.80;99.90
70726;DHT22;58304;53.104;6.022;2023-03-14T01:48:02;9.80;99.90
70726;DHT22;58304;53.104;6.022;2023-03-14T01:50:28;9.80;99.90
70726;DHT22;58304;53.104;6.022;2023-03-14T01:52:53;9.80;99.90
70726;DHT22;58304;53.104;6.022;2023-03-14T01:55:24;9.80;99.90
70726;DHT22;58304;53.104;6.022;2023-03-14T01:57:52;9.70;99.90
70726;DHT22;58304;53.104;6.022;2023-03-14T02:00:19;9.70;99.90
70726;DHT22;58304;53.104;6.022;2023-03-14T02:02:47;9.60;99.90
70726;DHT22;58304;53.104;6.022;2023-03-14T02:05:14;9.60;99.90
70726;DHT22;58304;53.104;6.022;2023-03-14T02:07:43;9.50;99.90
70726;DHT22;58304;53.104;6.022;2023-03-14T02:10:11;9.50;99.90
70726;DHT22;58304;53.104;6.022;2023-03-14T02:12:37;9.40;99.90
70726;DHT22;58304;53.104;6.022;2023-03-14T02:15:03;9.40;99.90
70726;DHT22;58304;53.104;6.022;2023-03-14T02:17:28;9.50;99.90
70726;DHT22;58304;53.104;6.022;2023-03-14T02:20:03;9.50;99.90
70726;DHT22;58304;53.104;6.022;2023-03-14T02:22:33;9.40;99.90
70726;DHT22;58304;53.104;6.022;2023-03-14T02:27:30;9.40;99.90
70726;DHT22;58304;53.104;6.022;2023-03-14T02:30:00;9.30;99.90
70726;DHT22;58304;53.104;6.022;2023-03-14T02:32:27;9.40;99.90
70726;DHT22;58304;53.104;6.022;2023-03-14T02:34:54;9.40;99.90
70726;DHT22;58304;53.104;6.022;2023-03-14T02:37:21;9.30;99.90
70726;DHT22;58304;53.104;6.022;2023-03-14T02:39:48;9.30;99.90
70726;DHT22;58304;53.104;6.022;2023-03-14T02:42:14;9.20;99.90
70726;DHT22;58304;53.104;6.022;2023-03-14T02:44:52;9.20;99.90
70726;DHT22;58304;53.104;6.022;2023-03-14T02:47:20;9.20;99.90
70726;DHT22;58304;53.104;6.022;2023-03-14T02:49:46;9.20;99.90
70726;DHT22;58304;53.104;6.022;2023-03-14T02:52:12;9.10;99.90
70726;DHT22;58304;53.104;6.022;2023-03-14T02:54:38;9.10;99.90
70726;DHT22;58304;53.104;6.022;2023-03-14T02:57:03;9.00;99.90
70726;DHT22;58304;53.104;6.022;2023-03-14T02:59:29;8.90;99.90
70726;DHT22;58304;53.104;6.022;2023-03-14T03:01:56;8.90;99.90
70726;DHT22;58304;53.104;6.022;2023-03-14T03:04:21;8.90;99.90
70726;DHT22;58304;53.104;6.022;2023-03-14T03:06:47;9.00;99.90
70726;DHT22;58304;53.104;6.022;2023-03-14T03:09:12;8.90;99.90
70726;DHT22;58304;53.104;6.022;2023-03-14T03:11:38;8.90;99.90
70726;DHT22;58304;53.104;6.022;2023-03-14T03:14:04;8.90;99.90
70726;DHT22;58304;53.104;6.022;2023-03-14T03:16:29;8.90;99.90
70726;DHT22;58304;53.104;6.022;2023-03-14T03:18:55;8.80;99.90
70726;DHT22;58304;53.104;6.022;2023-03-14T03:21:20;8.90;99.90
70726;DHT22;58304;53.104;6.022;2023-03-14T03:23:48;8.90;99.90
70726;DHT22;58304;53.104;6.022;2023-03-14T03:26:14;8.90;99.90
70726;DHT22;58304;53.104;6.022;2023-03-14T03:28:40;8.80;99.90
70726;DHT22;58304;53.104;6.022;2023-03-14T03:31:06;8.80;99.90
70726;DHT22;58304;53.104;6.022;2023-03-14T03:33:32;8.90;99.90
70726;DHT22;58304;53.104;6.022;2023-03-14T03:35:57;8.90;99.90
70726;DHT22;58304;53.104;6.022;2023-03-14T03:38:23;8.90;99.90
70726;DHT22;58304;53.104;6.022;2023-03-14T03:40:49;8.80;99.90
70726;DHT22;58304;53.104;6.022;2023-03-14T03:43:14;8.90;99.90
70726;DHT22;58304;53.104;6.022;2023-03-14T03:45:40;8.90;99.90
70726;DHT22;58304;53.104;6.022;2023-03-14T03:48:05;8.90;99.90
70726;DHT22;58304;53.104;6.022;2023-03-14T03:50:34;8.90;99.90
70726;DHT22;58304;53.104;6.022;2023-03-14T03:53:00;8.80;99.90
70726;DHT22;58304;53.104;6.022;2023-03-14T03:55:25;8.90;99.90
70726;DHT22;58304;53.104;6.022;2023-03-14T03:57:54;8.90;99.90
70726;DHT22;58304;53.104;6.022;2023-03-14T04:00:20;8.90;99.90
70726;DHT22;58304;53.104;6.022;2023-03-14T04:02:45;8.90;99.90
70726;DHT22;58304;53.104;6.022;2023-03-14T04:05:12;8.90;99.90
70726;DHT22;58304;53.104;6.022;2023-03-14T04:07:38;8.80;99.90
70726;DHT22;58304;53.104;6.022;2023-03-14T04:10:03;8.80;99.90
70726;DHT22;58304;53.104;6.022;2023-03-14T04:12:29;8.80;99.90
70726;DHT22;58304;53.104;6.022;2023-03-14T04:14:57;8.90;99.90
70726;DHT22;58304;53.104;6.022;2023-03-14T04:17:22;8.90;99.90
70726;DHT22;58304;53.104;6.022;2023-03-14T04:19:48;8.90;99.90
70726;DHT22;58304;53.104;6.022;2023-03-14T04:22:16;8.90;99.90
70726;DHT22;58304;53.104;6.022;2023-03-14T04:24:42;8.90;99.90
70726;DHT22;58304;53.104;6.022;2023-03-14T04:27:07;8.90;99.90
70726;DHT22;58304;53.104;6.022;2023-03-14T04:29:33;8.80;99.90
70726;DHT22;58304;53.104;6.022;2023-03-14T04:31:59;8.80;99.90
70726;DHT22;58304;53.104;6.022;2023-03-14T04:34:24;8.90;99.90
70726;DHT22;58304;53.104;6.022;2023-03-14T04:36:50;8.90;99.90
70726;DHT22;58304;53.104;6.022;2023-03-14T04:39:15;8.80;99.90
70726;DHT22;58304;53.104;6.022;2023-03-14T04:41:41;8.80;99.90
70726;DHT22;58304;53.104;6.022;2023-03-14T04:44:07;8.90;99.90
70726;DHT22;58304;53.104;6.022;2023-03-14T04:46:32;8.90;99.90
70726;DHT22;58304;53.104;6.022;2023-03-14T04:48:58;8.90;99.90
70726;DHT22;58304;53.104;6.022;2023-03-14T04:51:23;8.80;99.90
70726;DHT22;58304;53.104;6.022;2023-03-14T04:53:52;8.80;99.90
70726;DHT22;58304;53.104;6.022;2023-03-14T04:56:18;8.90;99.90
70726;DHT22;58304;53.104;6.022;2023-03-14T04:58:43;8.80;99.90
70726;DHT22;58304;53.104;6.022;2023-03-14T05:01:09;8.80;99.90
70726;DHT22;58304;53.104;6.022;2023-03-14T05:03:35;8.70;99.90
70726;DHT22;58304;53.104;6.022;2023-03-14T05:06:04;8.70;99.90
70726;DHT22;58304;53.104;6.022;2023-03-14T05:08:32;8.70;99.90
70726;DHT22;58304;53.104;6.022;2023-03-14T05:10:58;8.70;99.90
70726;DHT22;58304;53.104;6.022;2023-03-14T05:13:24;8.70;99.90
70726;DHT22;58304;53.104;6.022;2023-03-14T05:15:49;8.70;99.90
70726;DHT22;58304;53.104;6.022;2023-03-14T05:18:16;8.60;99.90
70726;DHT22;58304;53.104;6.022;2023-03-14T05:20:41;8.70;99.90
70726;DHT22;58304;53.104;6.022;2023-03-14T05:23:08;8.60;99.90
70726;DHT22;58304;53.104;6.022;2023-03-14T05:25:34;8.60;99.90
70726;DHT22;58304;53.104;6.022;2023-03-14T05:28:00;8.60;99.90
70726;DHT22;58304;53.104;6.022;2023-03-14T05:30:25;8.60;99.90
70726;DHT22;58304;53.104;6.022;2023-03-14T05:32:51;8.60;99.90
70726;DHT22;58304;53.104;6.022;2023-03-14T05:35:16;8.60;99.90
70726;DHT22;58304;53.104;6.022;2023-03-14T05:37:44;8.60;99.90
70726;DHT22;58304;53.104;6.022;2023-03-14T05:40:10;8.70;99.90
70726;DHT22;58304;53.104;6.022;2023-03-14T05:42:39;8.70;99.90
70726;DHT22;58304;53.104;6.022;2023-03-14T05:45:05;8.70;99.90
70726;DHT22;58304;53.104;6.022;2023-03-14T05:47:30;8.70;99.90
70726;DHT22;58304;53.104;6.022;2023-03-14T05:49:56;8.70;99.90
70726;DHT22;58304;53.104;6.022;2023-03-14T05:52:21;8.70;99.90
70726;DHT22;58304;53.104;6.022;2023-03-14T05:54:47;8.60;99.90
70726;DHT22;58304;53.104;6.022;2023-03-14T05:57:13;8.70;99.90
70726;DHT22;58304;53.104;6.022;2023-03-14T05:59:38;8.70;99.90
70726;DHT22;58304;53.104;6.022;2023-03-14T06:02:04;8.70;99.90
70726;DHT22;58304;53.104;6.022;2023-03-14T06:04:30;8.60;99.90
70726;DHT22;58304;53.104;6.022;2023-03-14T06:06:55;8.70;99.90
70726;DHT22;58304;53.104;6.022;2023-03-14T06:09:20;8.70;99.90
70726;DHT22;58304;53.104;6.022;2023-03-14T06:11:48;8.70;99.90
70726;DHT22;58304;53.104;6.022;2023-03-14T06:14:13;8.80;99.90
70726;DHT22;58304;53.104;6.022;2023-03-14T06:16:39;8.70;99.90
70726;DHT22;58304;53.104;6.022;2023-03-14T06:19:04;8.50;99.90
70726;DHT22;58304;53.104;6.022;2023-03-14T06:21:29;8.20;99.90
70726;DHT22;58304;53.104;6.022;2023-03-14T06:23:55;7.90;99.90
70726;DHT22;58304;53.104;6.022;2023-03-14T06:26:20;7.70;99.90
70726;DHT22;58304;53.104;6.022;2023-03-14T06:28:48;7.30;99.90
70726;DHT22;58304;53.104;6.022;2023-03-14T06:31:13;7.10;99.90
70726;DHT22;58304;53.104;6.022;2023-03-14T06:33:39;6.90;99.90
70726;DHT22;58304;53.104;6.022;2023-03-14T06:36:05;6.80;99.90
70726;DHT22;58304;53.104;6.022;2023-03-14T06:38:30;6.70;99.90
70726;DHT22;58304;53.104;6.022;2023-03-14T06:40:56;6.50;99.90
70726;DHT22;58304;53.104;6.022;2023-03-14T06:43:21;6.50;99.90
70726;DHT22;58304;53.104;6.022;2023-03-14T06:45:47;6.30;99.90
70726;DHT22;58304;53.104;6.022;2023-03-14T06:48:12;6.30;99.90
70726;DHT22;58304;53.104;6.022;2023-03-14T06:50:38;6.10;99.90
70726;DHT22;58304;53.104;6.022;2023-03-14T06:53:03;6.10;99.90
70726;DHT22;58304;53.104;6.022;2023-03-14T06:55:29;6.00;99.90
70726;DHT22;58304;53.104;6.022;2023-03-14T06:57:55;6.00;99.90
70726;DHT22;58304;53.104;6.022;2023-03-14T07:00:21;5.90;99.90
70726;DHT22;58304;53.104;6.022;2023-03-14T07:02:46;5.80;99.90
70726;DHT22;58304;53.104;6.022;2023-03-14T07:05:12;5.80;99.90
70726;DHT22;58304;53.104;6.022;2023-03-14T07:07:37;5.70;99.90
70726;DHT22;58304;53.104;6.022;2023-03-14T07:10:03;5.60;99.90
70726;DHT22;58304;53.104;6.022;2023-03-14T07:12:29;5.50;99.90
70726;DHT22;58304;53.104;6.022;2023-03-14T07:14:54;5.50;99.90
70726;DHT22;58304;53.104;6.022;2023-03-14T07:17:20;5.40;99.90
70726;DHT22;58304;53.104;6.022;2023-03-14T07:19:45;5.30;99.90
70726;DHT22;58304;53.104;6.022;2023-03-14T07:22:11;5.50;99.90
70726;DHT22;58304;53.104;6.022;2023-03-14T07:24:37;5.30;99.90
70726;DHT22;58304;53.104;6.022;2023-03-14T07:27:02;5.30;99.90
70726;DHT22;58304;53.104;6.022;2023-03-14T07:29:28;5.20;99.90
70726;DHT22;58304;53.104;6.022;2023-03-14T07:31:53;5.30;99.90
70726;DHT22;58304;53.104;6.022;2023-03-14T07:34:19;5.20;99.90
70726;DHT22;58304;53.104;6.022;2023-03-14T07:36:44;5.20;99.90
70726;DHT22;58304;53.104;6.022;2023-03-14T07:39:10;5.20;99.90
70726;DHT22;58304;53.104;6.022;2023-03-14T07:41:38;5.20;99.90
70726;DHT22;58304;53.104;6.022;2023-03-14T07:44:04;5.20;99.90
70726;DHT22;58304;53.104;6.022;2023-03-14T07:46:29;5.20;99.90
70726;DHT22;58304;53.104;6.022;2023-03-14T07:48:55;5.30;99.90
70726;DHT22;58304;53.104;6.022;2023-03-14T07:51:20;5.40;99.90
70726;DHT22;58304;53.104;6.022;2023-03-14T07:53:46;5.40;99.90
70726;DHT22;58304;53.104;6.022;2023-03-14T07:56:11;5.50;99.90
70726;DHT22;58304;53.104;6.022;2023-03-14T07:58:37;5.60;99.90
70726;DHT22;58304;53.104;6.022;2023-03-14T08:01:03;5.60;99.90
70726;DHT22;58304;53.104;6.022;2023-03-14T08:03:28;5.90;99.90
70726;DHT22;58304;53.104;6.022;2023-03-14T08:05:54;5.90;99.90
70726;DHT22;58304;53.104;6.022;2023-03-14T08:08:19;6.10;99.90
70726;DHT22;58304;53.104;6.022;2023-03-14T08:10:45;6.20;99.90
70726;DHT22;58304;53.104;6.022;2023-03-14T08:13:11;6.10;99.90
70726;DHT22;58304;53.104;6.022;2023-03-14T08:15:37;6.00;99.90
70726;DHT22;58304;53.104;6.022;2023-03-14T08:18:03;6.00;99.90
70726;DHT22;58304;53.104;6.022;2023-03-14T08:20:29;6.00;99.90
70726;DHT22;58304;53.104;6.022;2023-03-14T08:22:57;6.00;99.90
70726;DHT22;58304;53.104;6.022;2023-03-14T08:25:26;6.20;99.90
70726;DHT22;58304;53.104;6.022;2023-03-14T08:27:51;6.30;99.90
70726;DHT22;58304;53.104;6.022;2023-03-14T08:30:19;6.50;99.90
70726;DHT22;58304;53.104;6.022;2023-03-14T08:32:44;6.60;99.90
70726;DHT22;58304;53.104;6.022;2023-03-14T08:35:10;6.60;99.90
70726;DHT22;58304;53.104;6.022;2023-03-14T08:37:36;6.70;99.90
70726;DHT22;58304;53.104;6.022;2023-03-14T08:40:02;6.70;99.90
70726;DHT22;58304;53.104;6.022;2023-03-14T08:42:32;6.90;99.90
70726;DHT22;58304;53.104;6.022;2023-03-14T08:44:57;7.00;99.90
70726;DHT22;58304;53.104;6.022;2023-03-14T08:47:23;7.20;99.90
70726;DHT22;58304;53.104;6.022;2023-03-14T08:49:48;7.40;99.90
70726;DHT22;58304;53.104;6.022;2023-03-14T08:52:14;7.90;99.90
70726;DHT22;58304;53.104;6.022;2023-03-14T08:54:42;8.40;99.90
70726;DHT22;58304;53.104;6.022;2023-03-14T08:57:08;9.00;99.90
70726;DHT22;58304;53.104;6.022;2023-03-14T08:59:34;9.20;99.90
70726;DHT22;58304;53.104;6.022;2023-03-14T09:01:59;9.00;99.90
70726;DHT22;58304;53.104;6.022;2023-03-14T09:04:29;8.70;99.90
70726;DHT22;58304;53.104;6.022;2023-03-14T09:06:54;8.40;99.90
70726;DHT22;58304;53.104;6.022;2023-03-14T09:09:20;8.20;99.90
70726;DHT22;58304;53.104;6.022;2023-03-14T09:11:45;7.90;99.90
70726;DHT22;58304;53.104;6.022;2023-03-14T09:14:11;7.60;99.90
70726;DHT22;58304;53.104;6.022;2023-03-14T09:16:36;7.30;99.90
70726;DHT22;58304;53.104;6.022;2023-03-14T09:19:02;7.20;99.90
70726;DHT22;58304;53.104;6.022;2023-03-14T09:21:28;7.10;99.90
70726;DHT22;58304;53.104;6.022;2023-03-14T09:23:53;7.00;99.90
70726;DHT22;58304;53.104;6.022;2023-03-14T09:26:20;7.00;99.90
70726;DHT22;58304;53.104;6.022;2023-03-14T09:28:49;7.10;99.90
70726;DHT22;58304;53.104;6.022;2023-03-14T09:31:14;7.30;99.90
70726;DHT22;58304;53.104;6.022;2023-03-14T09:33:40;7.30;99.90
70726;DHT22;58304;53.104;6.022;2023-03-14T09:36:06;7.60;99.90
70726;DHT22;58304;53.104;6.022;2023-03-14T09:38:33;7.60;99.90
70726;DHT22;58304;53.104;6.022;2023-03-14T09:40:59;7.50;99.90
70726;DHT22;58304;53.104;6.022;2023-03-14T09:43:26;7.40;99.90
70726;DHT22;58304;53.104;6.022;2023-03-14T09:45:53;7.40;99.90
70726;DHT22;58304;53.104;6.022;2023-03-14T09:48:20;7.30;99.90
70726;DHT22;58304;53.104;6.022;2023-03-14T09:50:50;7.30;99.90
70726;DHT22;58304;53.104;6.022;2023-03-14T09:53:18;7.50;99.90
70726;DHT22;58304;53.104;6.022;2023-03-14T09:55:49;7.80;99.90
70726;DHT22;58304;53.104;6.022;2023-03-14T09:58:19;7.90;99.90
70726;DHT22;58304;53.104;6.022;2023-03-14T10:00:44;8.30;99.90
70726;DHT22;58304;53.104;6.022;2023-03-14T10:05:42;9.90;99.90
70726;DHT22;58304;53.104;6.022;2023-03-14T10:08:10;9.90;99.90
70726;DHT22;58304;53.104;6.022;2023-03-14T10:10:36;9.80;99.90
70726;DHT22;58304;53.104;6.022;2023-03-14T10:13:10;10.00;99.90
70726;DHT22;58304;53.104;6.022;2023-03-14T10:15:37;9.80;99.90
70726;DHT22;58304;53.104;6.022;2023-03-14T10:18:03;9.60;99.90
70726;DHT22;58304;53.104;6.022;2023-03-14T10:20:33;9.50;99.90
70726;DHT22;58304;53.104;6.022;2023-03-14T10:23:00;9.60;99.90
70726;DHT22;58304;53.104;6.022;2023-03-14T10:25:35;9.90;99.90
70726;DHT22;58304;53.104;6.022;2023-03-14T10:28:01;10.30;99.90
70726;DHT22;58304;53.104;6.022;2023-03-14T10:30:29;10.70;99.90
70726;DHT22;58304;53.104;6.022;2023-03-14T10:32:55;11.10;99.90
70726;DHT22;58304;53.104;6.022;2023-03-14T10:35:22;11.40;99.90
70726;DHT22;58304;53.104;6.022;2023-03-14T10:37:57;10.40;99.90
70726;DHT22;58304;53.104;6.022;2023-03-14T10:40:25;9.70;99.90
70726;DHT22;58304;53.104;6.022;2023-03-14T10:42:51;10.30;99.90
70726;DHT22;58304;53.104;6.022;2023-03-14T10:50:47;12.70;99.90
70726;DHT22;58304;53.104;6.022;2023-03-14T10:53:13;12.90;99.90
70726;DHT22;58304;53.104;6.022;2023-03-14T10:55:42;13.10;99.90
70726;DHT22;58304;53.104;6.022;2023-03-14T10:58:19;12.80;99.90
70726;DHT22;58304;53.104;6.022;2023-03-14T11:00:49;12.40;99.40
70726;DHT22;58304;53.104;6.022;2023-03-14T11:03:15;12.10;99.90
70726;DHT22;58304;53.104;6.022;2023-03-14T11:08:21;10.90;99.90
70726;DHT22;58304;53.104;6.022;2023-03-14T11:10:51;11.40;99.90
70726;DHT22;58304;53.104;6.022;2023-03-14T11:13:24;12.10;99.30
70726;DHT22;58304;53.104;6.022;2023-03-14T11:15:58;11.90;96.50
70726;DHT22;58304;53.104;6.022;2023-03-14T11:31:37;12.60;93.80
70726;DHT22;58304;53.104;6.022;2023-03-14T11:34:19;12.10;94.10
70726;DHT22;58304;53.104;6.022;2023-03-14T11:37:04;12.40;93.70
70726;DHT22;58304;53.104;6.022;2023-03-14T11:39:40;11.70;94.90
70726;DHT22;58304;53.104;6.022;2023-03-14T11:42:11;11.60;94.40
70726;DHT22;58304;53.104;6.022;2023-03-14T11:44:37;11.10;93.90
70726;DHT22;58304;53.104;6.022;2023-03-14T11:47:17;11.40;97.80
70726;DHT22;58304;53.104;6.022;2023-03-14T11:52:10;11.70;98.70
70726;DHT22;58304;53.104;6.022;2023-03-14T11:54:48;11.80;99.50
70726;DHT22;58304;53.104;6.022;2023-03-14T11:57:16;11.60;97.10
70726;DHT22;58304;53.104;6.022;2023-03-14T12:02:13;10.60;97.90
70726;DHT22;58304;53.104;6.022;2023-03-14T12:04:53;10.10;97.00
70726;DHT22;58304;53.104;6.022;2023-03-14T12:07:21;9.80;99.20
70726;DHT22;58304;53.104;6.022;2023-03-14T12:09:49;9.50;99.70
70726;DHT22;58304;53.104;6.022;2023-03-14T12:12:23;9.40;99.90
70726;DHT22;58304;53.104;6.022;2023-03-14T12:14:59;9.50;99.90
70726;DHT22;58304;53.104;6.022;2023-03-14T12:17:26;9.60;99.90
70726;DHT22;58304;53.104;6.022;2023-03-14T12:22:36;9.20;99.90
70726;DHT22;58304;53.104;6.022;2023-03-14T12:25:13;9.40;99.90
70726;DHT22;58304;53.104;6.022;2023-03-14T12:27:41;9.60;99.90
70726;DHT22;58304;53.104;6.022;2023-03-14T12:35:38;10.60;98.80
70726;DHT22;58304;53.104;6.022;2023-03-14T12:38:05;10.40;98.70
70726;DHT22;58304;53.104;6.022;2023-03-14T12:40:32;10.30;99.40
70726;DHT22;58304;53.104;6.022;2023-03-14T12:43:04;10.20;98.30
70726;DHT22;58304;53.104;6.022;2023-03-14T12:45:34;10.10;97.40
70726;DHT22;58304;53.104;6.022;2023-03-14T12:50:31;10.40;97.00
70726;DHT22;58304;53.104;6.022;2023-03-14T12:55:36;10.30;96.50
70726;DHT22;58304;53.104;6.022;2023-03-14T12:58:13;10.50;96.80
70726;DHT22;58304;53.104;6.022;2023-03-14T13:00:40;10.60;97.20
70726;DHT22;58304;53.104;6.022;2023-03-14T13:03:19;10.70;97.60
70726;DHT22;58304;53.104;6.022;2023-03-14T13:06:01;10.80;97.50
70726;DHT22;58304;53.104;6.022;2023-03-14T13:10:58;10.90;96.70
70726;DHT22;58304;53.104;6.022;2023-03-14T13:13:24;10.50;95.40
70726;DHT22;58304;53.104;6.022;2023-03-14T13:15:54;10.10;96.60
70726;DHT22;58304;53.104;6.022;2023-03-14T13:18:30;9.90;94.80
70726;DHT22;58304;53.104;6.022;2023-03-14T13:20:59;9.30;95.50
70726;DHT22;58304;53.104;6.022;2023-03-14T13:23:30;9.40;95.50
70726;DHT22;58304;53.104;6.022;2023-03-14T13:25:56;9.40;93.90
70726;DHT22;58304;53.104;6.022;2023-03-14T13:28:22;9.40;95.90
70726;DHT22;58304;53.104;6.022;2023-03-14T13:30:48;9.20;95.80
70726;DHT22;58304;53.104;6.022;2023-03-14T13:33:15;9.50;95.50
70726;DHT22;58304;53.104;6.022;2023-03-14T13:35:44;9.80;96.00
70726;DHT22;58304;53.104;6.022;2023-03-14T13:38:20;10.20;96.20
70726;DHT22;58304;53.104;6.022;2023-03-14T13:40:46;10.20;95.10
70726;DHT22;58304;53.104;6.022;2023-03-14T13:43:16;10.00;95.80
70726;DHT22;58304;53.104;6.022;2023-03-14T13:48:11;9.60;95.10
70726;DHT22;58304;53.104;6.022;2023-03-14T13:50:37;9.20;94.30
70726;DHT22;58304;53.104;6.022;2023-03-14T13:53:03;8.80;96.30
70726;DHT22;58304;53.104;6.022;2023-03-14T13:55:28;8.70;96.20
70726;DHT22;58304;53.104;6.022;2023-03-14T13:57:54;8.80;98.00
70726;DHT22;58304;53.104;6.022;2023-03-14T14:02:46;9.60;98.50
70726;DHT22;58304;53.104;6.022;2023-03-14T14:05:13;9.70;97.40
70726;DHT22;58304;53.104;6.022;2023-03-14T14:07:39;9.70;97.00
70726;DHT22;58304;53.104;6.022;2023-03-14T14:10:09;9.60;97.00
70726;DHT22;58304;53.104;6.022;2023-03-14T14:12:36;9.90;97.90
70726;DHT22;58304;53.104;6.022;2023-03-14T14:17:35;10.40;97.20
70726;DHT22;58304;53.104;6.022;2023-03-14T14:20:03;10.30;94.00
70726;DHT22;58304;53.104;6.022;2023-03-14T14:22:30;10.30;94.80
70726;DHT22;58304;53.104;6.022;2023-03-14T14:24:56;10.30;95.00
70726;DHT22;58304;53.104;6.022;2023-03-14T14:27:29;10.30;94.70
70726;DHT22;58304;53.104;6.022;2023-03-14T14:30:01;10.00;94.60
70726;DHT22;58304;53.104;6.022;2023-03-14T14:32:27;9.60;92.40
70726;DHT22;58304;53.104;6.022;2023-03-14T14:35:00;9.20;93.80
70726;DHT22;58304;53.104;6.022;2023-03-14T14:37:33;8.90;93.70
70726;DHT22;58304;53.104;6.022;2023-03-14T14:40:06;8.60;94.10
70726;DHT22;58304;53.104;6.022;2023-03-14T14:42:33;8.40;94.90
70726;DHT22;58304;53.104;6.022;2023-03-14T14:44:58;8.30;96.10
70726;DHT22;58304;53.104;6.022;2023-03-14T14:47:26;8.00;98.30
70726;DHT22;58304;53.104;6.022;2023-03-14T14:49:54;7.80;97.90
70726;DHT22;58304;53.104;6.022;2023-03-14T14:52:22;7.70;97.90
70726;DHT22;58304;53.104;6.022;2023-03-14T14:55:13;7.70;99.20
70726;DHT22;58304;53.104;6.022;2023-03-14T14:57:52;8.10;99.90
70726;DHT22;58304;53.104;6.022;2023-03-14T15:00:39;8.40;99.90
70726;DHT22;58304;53.104;6.022;2023-03-14T15:03:12;8.60;99.90
70726;DHT22;58304;53.104;6.022;2023-03-14T15:05:44;8.70;99.90
70726;DHT22;58304;53.104;6.022;2023-03-14T15:08:14;8.70;99.20
70726;DHT22;58304;53.104;6.022;2023-03-14T15:10:52;8.60;98.00
70726;DHT22;58304;53.104;6.022;2023-03-14T15:13:21;8.20;99.60
70726;DHT22;58304;53.104;6.022;2023-03-14T15:15:53;8.30;99.60
70726;DHT22;58304;53.104;6.022;2023-03-14T15:18:22;8.10;99.90
70726;DHT22;58304;53.104;6.022;2023-03-14T15:20:50;7.90;98.90
70726;DHT22;58304;53.104;6.022;2023-03-14T15:23:26;7.70;99.50
70726;DHT22;58304;53.104;6.022;2023-03-14T15:28:38;7.90;99.90
70726;DHT22;58304;53.104;6.022;2023-03-14T15:31:04;7.70;99.90
70726;DHT22;58304;53.104;6.022;2023-03-14T15:33:35;7.60;99.90
70726;DHT22;58304;53.104;6.022;2023-03-14T15:39:01;7.30;99.90
70726;DHT22;58304;53.104;6.022;2023-03-14T15:41:28;6.80;99.90
70726;DHT22;58304;53.104;6.022;2023-03-14T15:43:57;6.40;99.90
70726;DHT22;58304;53.104;6.022;2023-03-14T15:46:23;6.10;99.90
70726;DHT22;58304;53.104;6.022;2023-03-14T15:49:13;6.00;99.90
70726;DHT22;58304;53.104;6.022;2023-03-14T15:51:43;5.90;99.90
70726;DHT22;58304;53.104;6.022;2023-03-14T15:54:08;5.80;99.90
70726;DHT22;58304;53.104;6.022;2023-03-14T15:56:37;5.90;99.90
70726;DHT22;58304;53.104;6.022;2023-03-14T15:59:05;6.00;99.90
70726;DHT22;58304;53.104;6.022;2023-03-14T16:01:32;6.00;99.90
70726;DHT22;58304;53.104;6.022;2023-03-14T16:03:59;5.90;99.90
70726;DHT22;58304;53.104;6.022;2023-03-14T16:09:07;5.80;99.90
70726;DHT22;58304;53.104;6.022;2023-03-14T16:11:33;5.80;99.90
70726;DHT22;58304;53.104;6.022;2023-03-14T16:13:58;5.90;99.90
70726;DHT22;58304;53.104;6.022;2023-03-14T16:16:24;6.00;99.90
70726;DHT22;58304;53.104;6.022;2023-03-14T16:18:49;6.10;99.90
70726;DHT22;58304;53.104;6.022;2023-03-14T16:21:16;6.10;99.90
70726;DHT22;58304;53.104;6.022;2023-03-14T16:23:42;6.20;99.90
70726;DHT22;58304;53.104;6.022;2023-03-14T16:26:09;6.20;99.90
70726;DHT22;58304;53.104;6.022;2023-03-14T16:28:35;6.10;99.90
70726;DHT22;58304;53.104;6.022;2023-03-14T16:31:02;6.00;99.90
70726;DHT22;58304;53.104;6.022;2023-03-14T16:33:28;5.90;99.90
70726;DHT22;58304;53.104;6.022;2023-03-14T16:35:54;5.80;99.90
70726;DHT22;58304;53.104;6.022;2023-03-14T16:38:20;5.60;99.90
70726;DHT22;58304;53.104;6.022;2023-03-14T16:40:54;5.60;99.90
70726;DHT22;58304;53.104;6.022;2023-03-14T16:43:20;5.60;99.90
70726;DHT22;58304;53.104;6.022;2023-03-14T16:45:45;5.70;99.90
70726;DHT22;58304;53.104;6.022;2023-03-14T16:48:11;5.60;99.90